sensor_id;sensor_type;location;lat;lon;timestamp;pressure;altitude;pressure_sealevel;temperature;humidity
56402;BME280;42299;35.160;26.100;2022-09-13T00:00:53;100461.50;;;24.30;68.06
56402;BME280;42299;35.160;26.100;2022-09-13T00:02:14;100467.03;;;24.27;68.43
56402;BME280;42299;35.160;26.100;2022-09-13T00:03:40;100467.13;;;24.25;68.38
56402;BME280;42299;35.160;26.100;2022-09-13T00:05:03;100468.94;;;24.25;68.57
56402;BME280;42299;35.160;26.100;2022-09-13T00:06:26;100465.28;;;24.26;68.45
56402;BME280;42299;35.160;26.100;2022-09-13T00:07:48;100468.88;;;24.26;68.57
56402;BME280;42299;35.160;26.100;2022-09-13T00:09:10;100467.03;;;24.27;68.31
56402;BME280;42299;35.160;26.100;2022-09-13T00:10:33;100462.66;;;24.24;68.74
56402;BME280;42299;35.160;26.100;2022-09-13T00:11:54;100466.22;;;24.25;68.38
56402;BME280;42299;35.160;26.100;2022-09-13T00:13:17;100465.28;;;24.26;68.63
56402;BME280;42299;35.160;26.100;2022-09-13T00:14:38;100467.03;;;24.27;68.36
56402;BME280;42299;35.160;26.100;2022-09-13T00:16:01;100466.16;;;24.26;68.52
56402;BME280;42299;35.160;26.100;2022-09-13T00:17:25;100471.50;;;24.28;68.44
56402;BME280;42299;35.160;26.100;2022-09-13T00:18:47;100463.31;;;24.29;68.31
56402;BME280;42299;35.160;26.100;2022-09-13T00:20:10;100465.06;;;24.30;68.05
56402;BME280;42299;35.160;26.100;2022-09-13T00:21:33;100462.44;;;24.29;68.22
56402;BME280;42299;35.160;26.100;2022-09-13T00:22:55;100472.44;;;24.27;68.05
56402;BME280;42299;35.160;26.100;2022-09-13T00:24:17;100463.47;;;24.26;68.21
56402;BME280;42299;35.160;26.100;2022-09-13T00:25:39;100461.72;;;24.25;68.18
56402;BME280;42299;35.160;26.100;2022-09-13T00:27:01;100463.59;;;24.23;68.11
56402;BME280;42299;35.160;26.100;2022-09-13T00:28:23;100468.94;;;24.25;68.31
56402;BME280;42299;35.160;26.100;2022-09-13T00:29:44;100460.91;;;24.23;68.08
56402;BME280;42299;35.160;26.100;2022-09-13T00:31:08;100455.50;;;24.23;68.21
56402;BME280;42299;35.160;26.100;2022-09-13T00:32:33;100460.84;;;24.25;68.03
56402;BME280;42299;35.160;26.100;2022-09-13T00:33:54;100464.47;;;24.23;68.29
56402;BME280;42299;35.160;26.100;2022-09-13T00:35:18;100460.78;;;24.26;68.33
56402;BME280;42299;35.160;26.100;2022-09-13T00:36:41;100457.84;;;24.31;67.95
56402;BME280;42299;35.160;26.100;2022-09-13T00:38:03;100445.25;;;24.31;67.90
56402;BME280;42299;35.160;26.100;2022-09-13T00:39:24;100448.81;;;24.32;67.84
56402;BME280;42299;35.160;26.100;2022-09-13T00:40:46;100447.94;;;24.31;67.92
56402;BME280;42299;35.160;26.100;2022-09-13T00:42:10;100443.56;;;24.29;68.22
56402;BME280;42299;35.160;26.100;2022-09-13T00:43:45;100445.31;;;24.30;68.20
56402;BME280;42299;35.160;26.100;2022-09-13T00:45:14;100441.66;;;24.31;68.04
56402;BME280;42299;35.160;26.100;2022-09-13T00:46:40;100442.53;;;24.31;68.52
56402;BME280;42299;35.160;26.100;2022-09-13T00:48:07;100447.00;;;24.32;68.49
56402;BME280;42299;35.160;26.100;2022-09-13T00:49:35;100446.84;;;24.35;68.52
56402;BME280;42299;35.160;26.100;2022-09-13T00:50:58;100450.34;;;24.37;68.16
56402;BME280;42299;35.160;26.100;2022-09-13T00:52:25;100437.69;;;24.39;68.27
56402;BME280;42299;35.160;26.100;2022-09-13T00:53:51;100438.50;;;24.41;68.42
56402;BME280;42299;35.160;26.100;2022-09-13T00:55:18;100434.81;;;24.42;68.38
56402;BME280;42299;35.160;26.100;2022-09-13T00:56:44;100437.31;;;24.47;68.49
56402;BME280;42299;35.160;26.100;2022-09-13T00:58:10;100437.16;;;24.50;68.75
56402;BME280;42299;35.160;26.100;2022-09-13T00:59:38;100438.69;;;24.55;68.70
56402;BME280;42299;35.160;26.100;2022-09-13T01:01:03;100439.66;;;24.54;68.85
56402;BME280;42299;35.160;26.100;2022-09-13T01:02:27;100432.34;;;24.56;68.95
56402;BME280;42299;35.160;26.100;2022-09-13T01:03:49;100432.22;;;24.59;68.85
56402;BME280;42299;35.160;26.100;2022-09-13T01:05:13;100432.06;;;24.62;68.88
56402;BME280;42299;35.160;26.100;2022-09-13T01:06:37;100430.16;;;24.65;68.79
56402;BME280;42299;35.160;26.100;2022-09-13T01:08:03;100437.25;;;24.67;68.91
56402;BME280;42299;35.160;26.100;2022-09-13T01:09:45;100428.28;;;24.67;68.99
56402;BME280;42299;35.160;26.100;2022-09-13T01:11:13;100432.81;;;24.66;68.80
56402;BME280;42299;35.160;26.100;2022-09-13T01:12:44;100426.53;;;24.66;68.91
56402;BME280;42299;35.160;26.100;2022-09-13T01:14:08;100433.81;;;24.63;69.14
56402;BME280;42299;35.160;26.100;2022-09-13T01:15:31;100432.94;;;24.63;69.18
56402;BME280;42299;35.160;26.100;2022-09-13T01:16:52;100427.53;;;24.63;68.94
56402;BME280;42299;35.160;26.100;2022-09-13T01:18:14;100426.75;;;24.61;69.13
56402;BME280;42299;35.160;26.100;2022-09-13T01:19:38;100425.13;;;24.57;69.33
56402;BME280;42299;35.160;26.100;2022-09-13T01:27:16;100432.13;;;24.42;68.52
56402;BME280;42299;35.160;26.100;2022-09-13T01:29:03;100431.19;;;24.43;68.62
56402;BME280;42299;35.160;26.100;2022-09-13T01:30:34;100431.19;;;24.43;68.57
56402;BME280;42299;35.160;26.100;2022-09-13T01:32:03;100422.31;;;24.41;68.25
56402;BME280;42299;35.160;26.100;2022-09-13T01:33:39;100420.44;;;24.42;68.44
56402;BME280;42299;35.160;26.100;2022-09-13T01:35:15;100431.19;;;24.43;68.26
56402;BME280;42299;35.160;26.100;2022-09-13T01:36:55;100430.22;;;24.44;68.13
56402;BME280;42299;35.160;26.100;2022-09-13T01:38:35;100427.53;;;24.44;67.75
56402;BME280;42299;35.160;26.100;2022-09-13T01:40:11;100432.94;;;24.44;67.95
56402;BME280;42299;35.160;26.100;2022-09-13T01:41:58;100427.59;;;24.43;68.00
56402;BME280;42299;35.160;26.100;2022-09-13T01:43:30;100426.81;;;24.41;67.82
56402;BME280;42299;35.160;26.100;2022-09-13T01:45:03;100431.25;;;24.42;67.89
56402;BME280;42299;35.160;26.100;2022-09-13T01:46:32;100426.81;;;24.41;67.77
56402;BME280;42299;35.160;26.100;2022-09-13T01:47:59;100429.50;;;24.41;67.46
56402;BME280;42299;35.160;26.100;2022-09-13T01:49:29;100433.22;;;24.38;67.28
56402;BME280;42299;35.160;26.100;2022-09-13T01:50:58;100423.38;;;24.37;67.47
56402;BME280;42299;35.160;26.100;2022-09-13T01:52:25;100432.41;;;24.36;67.20
56402;BME280;42299;35.160;26.100;2022-09-13T01:53:51;100424.41;;;24.35;66.70
56402;BME280;42299;35.160;26.100;2022-09-13T01:55:24;100430.75;;;24.34;66.64
56402;BME280;42299;35.160;26.100;2022-09-13T01:56:54;100423.53;;;24.34;66.19
56402;BME280;42299;35.160;26.100;2022-09-13T01:58:23;100431.63;;;24.34;66.35
56402;BME280;42299;35.160;26.100;2022-09-13T01:59:52;100428.75;;;24.37;66.03
56402;BME280;42299;35.160;26.100;2022-09-13T02:01:17;100429.59;;;24.39;66.16
56402;BME280;42299;35.160;26.100;2022-09-13T02:02:44;100431.34;;;24.40;66.08
56402;BME280;42299;35.160;26.100;2022-09-13T02:04:11;100426.81;;;24.41;66.05
56402;BME280;42299;35.160;26.100;2022-09-13T02:05:40;100430.47;;;24.40;66.02
56402;BME280;42299;35.160;26.100;2022-09-13T02:07:06;100435.84;;;24.40;65.82
56402;BME280;42299;35.160;26.100;2022-09-13T02:08:34;100432.22;;;24.41;65.74
56402;BME280;42299;35.160;26.100;2022-09-13T02:10:02;100429.41;;;24.42;65.71
56402;BME280;42299;35.160;26.100;2022-09-13T02:11:26;100432.94;;;24.44;65.71
56402;BME280;42299;35.160;26.100;2022-09-13T02:12:50;100428.19;;;24.49;65.47
56402;BME280;42299;35.160;26.100;2022-09-13T02:14:16;100432.50;;;24.53;65.40
56402;BME280;42299;35.160;26.100;2022-09-13T02:15:41;100429.59;;;24.58;65.27
56402;BME280;42299;35.160;26.100;2022-09-13T02:17:06;100425.88;;;24.60;65.40
56402;BME280;42299;35.160;26.100;2022-09-13T02:18:36;100426.66;;;24.62;65.31
56402;BME280;42299;35.160;26.100;2022-09-13T02:20:02;100418.56;;;24.62;65.01
56402;BME280;42299;35.160;26.100;2022-09-13T02:21:29;100434.75;;;24.62;65.38
56402;BME280;42299;35.160;26.100;2022-09-13T02:22:56;100432.06;;;24.62;65.09
56402;BME280;42299;35.160;26.100;2022-09-13T02:24:23;100429.28;;;24.64;65.34
56402;BME280;42299;35.160;26.100;2022-09-13T02:25:45;100427.53;;;24.63;65.04
56402;BME280;42299;35.160;26.100;2022-09-13T02:27:12;100426.66;;;24.62;65.19
56402;BME280;42299;35.160;26.100;2022-09-13T02:28:37;100422.19;;;24.61;64.92
56402;BME280;42299;35.160;26.100;2022-09-13T02:30:05;100416.91;;;24.60;64.78
56402;BME280;42299;35.160;26.100;2022-09-13T02:31:30;100425.00;;;24.60;64.68
56402;BME280;42299;35.160;26.100;2022-09-13T02:32:58;100417.03;;;24.57;64.98
56402;BME280;42299;35.160;26.100;2022-09-13T02:34:27;100421.56;;;24.56;64.79
56402;BME280;42299;35.160;26.100;2022-09-13T02:35:54;100416.16;;;24.56;64.89
56402;BME280;42299;35.160;26.100;2022-09-13T02:37:18;100423.38;;;24.56;64.94
56402;BME280;42299;35.160;26.100;2022-09-13T02:38:40;100426.06;;;24.56;64.78
56402;BME280;42299;35.160;26.100;2022-09-13T02:40:09;100433.28;;;24.55;64.57
56402;BME280;42299;35.160;26.100;2022-09-13T02:41:39;100427.75;;;24.58;64.63
56402;BME280;42299;35.160;26.100;2022-09-13T02:43:07;100420.53;;;24.59;64.30
56402;BME280;42299;35.160;26.100;2022-09-13T02:44:32;100426.94;;;24.56;64.14
56402;BME280;42299;35.160;26.100;2022-09-13T02:46:09;100431.56;;;24.54;64.54
56402;BME280;42299;35.160;26.100;2022-09-13T02:47:42;100433.53;;;24.51;64.68
56402;BME280;42299;35.160;26.100;2022-09-13T02:49:11;100431.94;;;24.47;64.77
56402;BME280;42299;35.160;26.100;2022-09-13T02:50:45;100427.59;;;24.43;64.58
56402;BME280;42299;35.160;26.100;2022-09-13T02:52:17;100433.00;;;24.43;64.62
56402;BME280;42299;35.160;26.100;2022-09-13T02:53:42;100433.94;;;24.42;64.62
56402;BME280;42299;35.160;26.100;2022-09-13T02:55:14;100434.03;;;24.40;64.83
56402;BME280;42299;35.160;26.100;2022-09-13T02:56:44;100437.63;;;24.41;64.76
56402;BME280;42299;35.160;26.100;2022-09-13T02:58:12;100437.50;;;24.42;64.83
56402;BME280;42299;35.160;26.100;2022-09-13T02:59:37;100440.22;;;24.42;64.90
56402;BME280;42299;35.160;26.100;2022-09-13T03:00:58;100434.81;;;24.42;64.91
56402;BME280;42299;35.160;26.100;2022-09-13T03:02:24;100445.47;;;24.45;64.81
56402;BME280;42299;35.160;26.100;2022-09-13T03:03:50;100432.06;;;24.44;65.01
56402;BME280;42299;35.160;26.100;2022-09-13T03:05:12;100437.63;;;24.41;64.99
56402;BME280;42299;35.160;26.100;2022-09-13T03:06:36;100437.63;;;24.41;64.71
56402;BME280;42299;35.160;26.100;2022-09-13T03:08:02;100433.16;;;24.40;64.92
56402;BME280;42299;35.160;26.100;2022-09-13T03:09:25;100440.44;;;24.38;64.79
56402;BME280;42299;35.160;26.100;2022-09-13T03:10:53;100434.97;;;24.39;64.88
56402;BME280;42299;35.160;26.100;2022-09-13T03:12:54;100437.69;;;24.39;64.72
56402;BME280;42299;35.160;26.100;2022-09-13T03:14:32;100445.91;;;24.36;64.86
56402;BME280;42299;35.160;26.100;2022-09-13T03:16:05;100448.59;;;24.36;64.87
56402;BME280;42299;35.160;26.100;2022-09-13T03:17:41;100453.06;;;24.37;64.65
56402;BME280;42299;35.160;26.100;2022-09-13T03:21:00;100446.84;;;24.35;64.66
56402;BME280;42299;35.160;26.100;2022-09-13T03:22:48;100444.31;;;24.32;64.95
56402;BME280;42299;35.160;26.100;2022-09-13T03:24:19;100448.88;;;24.30;64.82
56402;BME280;42299;35.160;26.100;2022-09-13T03:25:57;100444.38;;;24.31;64.79
56402;BME280;42299;35.160;26.100;2022-09-13T03:27:31;100448.94;;;24.29;64.77
56402;BME280;42299;35.160;26.100;2022-09-13T03:29:09;100452.63;;;24.28;64.66
56402;BME280;42299;35.160;26.100;2022-09-13T03:30:36;100457.13;;;24.27;64.71
56402;BME280;42299;35.160;26.100;2022-09-13T03:32:06;100455.31;;;24.28;64.45
56402;BME280;42299;35.160;26.100;2022-09-13T03:33:41;100455.38;;;24.26;64.46
56402;BME280;42299;35.160;26.100;2022-09-13T03:35:13;100460.84;;;24.25;64.60
56402;BME280;42299;35.160;26.100;2022-09-13T03:36:42;100459.22;;;24.20;64.46
56402;BME280;42299;35.160;26.100;2022-09-13T03:38:11;100456.63;;;24.17;64.68
56402;BME280;42299;35.160;26.100;2022-09-13T03:39:38;100455.09;;;24.12;64.50
56402;BME280;42299;35.160;26.100;2022-09-13T03:41:06;100461.31;;;24.14;64.47
56402;BME280;42299;35.160;26.100;2022-09-13T03:42:34;100459.38;;;24.16;64.42
56402;BME280;42299;35.160;26.100;2022-09-13T03:44:00;100461.16;;;24.17;64.24
56402;BME280;42299;35.160;26.100;2022-09-13T03:45:27;100455.03;;;24.13;64.29
56402;BME280;42299;35.160;26.100;2022-09-13T03:46:53;100466.75;;;24.12;64.58
56402;BME280;42299;35.160;26.100;2022-09-13T03:48:17;100461.59;;;24.08;64.50
56402;BME280;42299;35.160;26.100;2022-09-13T03:49:40;100466.09;;;24.07;64.39
56402;BME280;42299;35.160;26.100;2022-09-13T03:51:03;100461.59;;;24.08;64.35
56402;BME280;42299;35.160;26.100;2022-09-13T03:52:26;100462.47;;;24.08;64.36
56402;BME280;42299;35.160;26.100;2022-09-13T03:53:53;100462.38;;;24.10;64.48
56402;BME280;42299;35.160;26.100;2022-09-13T03:55:18;100470.47;;;24.10;64.46
56402;BME280;42299;35.160;26.100;2022-09-13T03:56:41;100463.25;;;24.10;64.07
56402;BME280;42299;35.160;26.100;2022-09-13T03:58:03;100473.97;;;24.12;64.36
56402;BME280;42299;35.160;26.100;2022-09-13T03:59:25;100478.44;;;24.13;64.22
56402;BME280;42299;35.160;26.100;2022-09-13T04:00:47;100472.22;;;24.11;64.12
56402;BME280;42299;35.160;26.100;2022-09-13T04:02:10;100476.66;;;24.12;64.03
56402;BME280;42299;35.160;26.100;2022-09-13T04:03:31;100477.59;;;24.11;63.96
56402;BME280;42299;35.160;26.100;2022-09-13T04:04:54;100478.56;;;24.10;64.27
56402;BME280;42299;35.160;26.100;2022-09-13T04:06:16;100480.19;;;24.14;64.00
56402;BME280;42299;35.160;26.100;2022-09-13T04:07:38;100477.50;;;24.14;64.03
56402;BME280;42299;35.160;26.100;2022-09-13T04:09:02;100476.53;;;24.15;63.89
56402;BME280;42299;35.160;26.100;2022-09-13T04:10:24;100485.63;;;24.12;64.12
56402;BME280;42299;35.160;26.100;2022-09-13T04:11:47;100483.06;;;24.09;63.92
56402;BME280;42299;35.160;26.100;2022-09-13T04:13:08;100486.75;;;24.08;63.80
56402;BME280;42299;35.160;26.100;2022-09-13T04:14:31;100486.75;;;24.08;63.86
56402;BME280;42299;35.160;26.100;2022-09-13T04:15:53;100487.69;;;24.07;63.77
56402;BME280;42299;35.160;26.100;2022-09-13T04:17:15;100493.00;;;24.09;63.71
56402;BME280;42299;35.160;26.100;2022-09-13T04:18:37;100490.09;;;24.13;64.02
56402;BME280;42299;35.160;26.100;2022-09-13T04:19:59;100496.06;;;24.21;63.82
56402;BME280;42299;35.160;26.100;2022-09-13T04:21:22;100495.63;;;24.31;63.70
56402;BME280;42299;35.160;26.100;2022-09-13T04:22:50;100494.28;;;24.41;63.39
56402;BME280;42299;35.160;26.100;2022-09-13T04:24:14;100501.06;;;24.49;63.05
56402;BME280;42299;35.160;26.100;2022-09-13T04:25:38;100498.06;;;24.55;62.95
56402;BME280;42299;35.160;26.100;2022-09-13T04:27:01;100501.53;;;24.59;62.82
56402;BME280;42299;35.160;26.100;2022-09-13T04:28:23;100501.47;;;24.60;62.34
56402;BME280;42299;35.160;26.100;2022-09-13T04:29:45;100503.13;;;24.63;62.49
56402;BME280;42299;35.160;26.100;2022-09-13T04:31:07;100494.97;;;24.65;62.14
56402;BME280;42299;35.160;26.100;2022-09-13T04:32:28;100500.38;;;24.65;62.32
56402;BME280;42299;35.160;26.100;2022-09-13T04:33:53;100500.38;;;24.65;61.99
56402;BME280;42299;35.160;26.100;2022-09-13T04:35:14;100505.53;;;24.69;61.96
56402;BME280;42299;35.160;26.100;2022-09-13T04:36:37;100507.22;;;24.72;61.76
56402;BME280;42299;35.160;26.100;2022-09-13T04:37:59;100508.25;;;24.69;61.69
56402;BME280;42299;35.160;26.100;2022-09-13T04:39:23;100513.56;;;24.71;61.73
56402;BME280;42299;35.160;26.100;2022-09-13T04:40:51;100508.13;;;24.72;61.49
56402;BME280;42299;35.160;26.100;2022-09-13T04:42:14;100512.34;;;24.78;61.14
56402;BME280;42299;35.160;26.100;2022-09-13T04:43:35;100507.66;;;24.81;61.18
56402;BME280;42299;35.160;26.100;2022-09-13T04:44:57;100510.28;;;24.83;60.98
56402;BME280;42299;35.160;26.100;2022-09-13T04:46:20;100510.91;;;24.89;61.02
56402;BME280;42299;35.160;26.100;2022-09-13T04:47:41;100515.66;;;25.03;61.01
56402;BME280;42299;35.160;26.100;2022-09-13T04:49:03;100505.06;;;25.17;60.58
56402;BME280;42299;35.160;26.100;2022-09-13T04:50:25;100507.03;;;25.32;60.28
56402;BME280;42299;35.160;26.100;2022-09-13T04:51:47;100511.66;;;25.48;60.18
56402;BME280;42299;35.160;26.100;2022-09-13T04:53:09;100511.88;;;25.62;59.69
56402;BME280;42299;35.160;26.100;2022-09-13T04:54:33;100501.41;;;25.73;59.56
56402;BME280;42299;35.160;26.100;2022-09-13T04:55:59;100501.72;;;25.84;59.12
56402;BME280;42299;35.160;26.100;2022-09-13T04:57:21;100501.47;;;25.89;59.08
56402;BME280;42299;35.160;26.100;2022-09-13T04:58:43;100500.78;;;25.85;58.68
56402;BME280;42299;35.160;26.100;2022-09-13T05:00:07;100510.66;;;25.86;58.81
56402;BME280;42299;35.160;26.100;2022-09-13T05:01:30;100500.69;;;25.87;58.72
56402;BME280;42299;35.160;26.100;2022-09-13T05:02:55;100515.56;;;25.95;58.57
56402;BME280;42299;35.160;26.100;2022-09-13T05:04:17;100511.50;;;26.04;58.36
56402;BME280;42299;35.160;26.100;2022-09-13T05:05:40;100504.91;;;26.09;58.03
56402;BME280;42299;35.160;26.100;2022-09-13T05:07:01;100511.50;;;26.21;58.00
56402;BME280;42299;35.160;26.100;2022-09-13T05:08:23;100521.69;;;26.33;57.72
56402;BME280;42299;35.160;26.100;2022-09-13T05:09:46;100515.72;;;26.44;57.58
56402;BME280;42299;35.160;26.100;2022-09-13T05:11:09;100525.41;;;26.48;57.33
56402;BME280;42299;35.160;26.100;2022-09-13T05:12:31;100525.28;;;26.51;57.17
56402;BME280;42299;35.160;26.100;2022-09-13T05:13:56;100518.97;;;26.50;57.12
56402;BME280;42299;35.160;26.100;2022-09-13T05:15:19;100522.78;;;26.46;56.79
56402;BME280;42299;35.160;26.100;2022-09-13T05:16:40;100524.47;;;26.49;56.79
56402;BME280;42299;35.160;26.100;2022-09-13T05:18:03;100526.75;;;26.56;56.88
56402;BME280;42299;35.160;26.100;2022-09-13T05:19:25;100522.44;;;26.70;56.86
56402;BME280;42299;35.160;26.100;2022-09-13T05:20:47;100520.59;;;26.86;56.99
56402;BME280;42299;35.160;26.100;2022-09-13T05:22:08;100520.75;;;27.00;56.49
56402;BME280;42299;35.160;26.100;2022-09-13T05:23:31;100523.31;;;27.03;56.22
56402;BME280;42299;35.160;26.100;2022-09-13T05:24:54;100526.09;;;27.02;56.00
56402;BME280;42299;35.160;26.100;2022-09-13T05:26:17;100531.13;;;26.92;55.73
56402;BME280;42299;35.160;26.100;2022-09-13T05:27:40;100524.28;;;26.85;55.82
56402;BME280;42299;35.160;26.100;2022-09-13T05:29:02;100535.59;;;26.93;56.06
56402;BME280;42299;35.160;26.100;2022-09-13T05:30:24;100529.41;;;27.07;55.39
56402;BME280;42299;35.160;26.100;2022-09-13T05:31:47;100539.47;;;27.20;55.28
56402;BME280;42299;35.160;26.100;2022-09-13T05:33:08;100527.94;;;27.32;55.15
56402;BME280;42299;35.160;26.100;2022-09-13T05:34:30;100535.19;;;27.48;54.72
56402;BME280;42299;35.160;26.100;2022-09-13T05:35:53;100531.00;;;27.58;54.41
56402;BME280;42299;35.160;26.100;2022-09-13T05:37:14;100536.41;;;27.73;54.07
56402;BME280;42299;35.160;26.100;2022-09-13T05:38:37;100541.19;;;27.84;53.50
56402;BME280;42299;35.160;26.100;2022-09-13T05:40:01;100538.16;;;27.74;53.36
56402;BME280;42299;35.160;26.100;2022-09-13T05:41:24;100545.41;;;27.74;53.34
56402;BME280;42299;35.160;26.100;2022-09-13T05:42:45;100547.03;;;27.62;53.42
56402;BME280;42299;35.160;26.100;2022-09-13T05:44:08;100551.53;;;27.46;53.48
56402;BME280;42299;35.160;26.100;2022-09-13T05:45:30;100546.22;;;27.29;53.52
56402;BME280;42299;35.160;26.100;2022-09-13T05:46:52;100554.41;;;27.12;53.66
56402;BME280;42299;35.160;26.100;2022-09-13T05:48:14;100547.25;;;26.95;53.92
56402;BME280;42299;35.160;26.100;2022-09-13T05:49:35;100543.34;;;26.83;54.19
56402;BME280;42299;35.160;26.100;2022-09-13T05:51:04;100564.47;;;26.77;54.37
56402;BME280;42299;35.160;26.100;2022-09-13T05:52:27;100558.34;;;26.73;54.42
56402;BME280;42299;35.160;26.100;2022-09-13T05:53:50;100558.53;;;26.70;54.23
56402;BME280;42299;35.160;26.100;2022-09-13T05:55:15;100554.41;;;26.63;54.41
56402;BME280;42299;35.160;26.100;2022-09-13T05:56:37;100557.66;;;26.52;54.46
56402;BME280;42299;35.160;26.100;2022-09-13T05:58:01;100564.53;;;26.42;54.91
56402;BME280;42299;35.160;26.100;2022-09-13T05:59:23;100559.44;;;26.36;54.94
56402;BME280;42299;35.160;26.100;2022-09-13T06:00:51;100554.91;;;26.37;55.08
56402;BME280;42299;35.160;26.100;2022-09-13T06:02:13;100556.13;;;26.31;55.10
56402;BME280;42299;35.160;26.100;2022-09-13T06:03:35;100560.56;;;26.49;55.40
56402;BME280;42299;35.160;26.100;2022-09-13T06:04:56;100559.06;;;26.77;55.31
56402;BME280;42299;35.160;26.100;2022-09-13T06:06:19;100572.19;;;26.84;54.90
56402;BME280;42299;35.160;26.100;2022-09-13T06:07:42;100576.56;;;26.87;55.27
56402;BME280;42299;35.160;26.100;2022-09-13T06:09:03;100575.16;;;27.13;55.13
56402;BME280;42299;35.160;26.100;2022-09-13T06:10:29;100578.34;;;27.52;54.86
56402;BME280;42299;35.160;26.100;2022-09-13T06:11:52;100577.34;;;27.85;54.42
56402;BME280;42299;35.160;26.100;2022-09-13T06:13:14;100578.16;;;28.17;53.82
56402;BME280;42299;35.160;26.100;2022-09-13T06:14:36;100580.09;;;28.44;53.07
56402;BME280;42299;35.160;26.100;2022-09-13T06:16:00;100580.44;;;28.68;52.73
56402;BME280;42299;35.160;26.100;2022-09-13T06:17:23;100586.09;;;28.93;52.30
56402;BME280;42299;35.160;26.100;2022-09-13T06:18:45;100587.16;;;29.05;51.60
56402;BME280;42299;35.160;26.100;2022-09-13T06:20:08;100589.50;;;28.97;51.39
56402;BME280;42299;35.160;26.100;2022-09-13T06:21:31;100589.78;;;29.07;51.32
56402;BME280;42299;35.160;26.100;2022-09-13T06:22:53;100582.94;;;29.28;50.74
56402;BME280;42299;35.160;26.100;2022-09-13T06:24:15;100588.00;;;29.48;50.40
56402;BME280;42299;35.160;26.100;2022-09-13T06:25:38;100580.63;;;29.77;49.78
56402;BME280;42299;35.160;26.100;2022-09-13T06:27:01;100585.75;;;29.96;49.13
56402;BME280;42299;35.160;26.100;2022-09-13T06:28:24;100591.22;;;30.08;48.91
56402;BME280;42299;35.160;26.100;2022-09-13T06:29:46;100596.81;;;30.20;48.31
56402;BME280;42299;35.160;26.100;2022-09-13T06:31:10;100588.13;;;30.40;48.08
56402;BME280;42299;35.160;26.100;2022-09-13T06:32:33;100584.81;;;30.62;47.74
56402;BME280;42299;35.160;26.100;2022-09-13T06:33:57;100591.16;;;30.75;47.37
56402;BME280;42299;35.160;26.100;2022-09-13T06:35:19;100590.50;;;30.84;47.01
56402;BME280;42299;35.160;26.100;2022-09-13T06:36:42;100590.25;;;30.87;47.03
56402;BME280;42299;35.160;26.100;2022-09-13T06:38:04;100593.66;;;31.03;46.55
56402;BME280;42299;35.160;26.100;2022-09-13T06:39:26;100592.00;;;31.26;46.25
56402;BME280;42299;35.160;26.100;2022-09-13T06:40:58;100606.44;;;31.52;46.02
56402;BME280;42299;35.160;26.100;2022-09-13T06:42:20;100603.63;;;31.53;45.81
56402;BME280;42299;35.160;26.100;2022-09-13T06:43:44;100614.44;;;31.55;45.65
56402;BME280;42299;35.160;26.100;2022-09-13T06:45:08;100612.03;;;31.50;45.90
56402;BME280;42299;35.160;26.100;2022-09-13T06:46:32;100608.22;;;31.40;46.01
56402;BME280;42299;35.160;26.100;2022-09-13T06:47:55;100615.56;;;31.27;46.44
56402;BME280;42299;35.160;26.100;2022-09-13T06:49:18;100616.34;;;31.29;46.25
56402;BME280;42299;35.160;26.100;2022-09-13T06:50:41;100620.06;;;31.03;48.92
56402;BME280;42299;35.160;26.100;2022-09-13T06:52:05;100613.81;;;30.50;50.50
56402;BME280;42299;35.160;26.100;2022-09-13T06:53:28;100616.56;;;29.96;51.37
56402;BME280;42299;35.160;26.100;2022-09-13T06:54:51;100616.38;;;29.44;51.81
56402;BME280;42299;35.160;26.100;2022-09-13T06:56:16;100621.44;;;29.08;51.82
56402;BME280;42299;35.160;26.100;2022-09-13T06:57:39;100625.03;;;28.94;51.50
56402;BME280;42299;35.160;26.100;2022-09-13T06:59:04;100622.03;;;28.99;51.12
56402;BME280;42299;35.160;26.100;2022-09-13T07:00:27;100631.22;;;28.96;50.88
56402;BME280;42299;35.160;26.100;2022-09-13T07:01:50;100640.56;;;28.92;50.75
56402;BME280;42299;35.160;26.100;2022-09-13T07:03:13;100623.06;;;28.82;50.97
56402;BME280;42299;35.160;26.100;2022-09-13T07:04:35;100625.28;;;28.75;50.87
56402;BME280;42299;35.160;26.100;2022-09-13T07:05:58;100637.44;;;28.84;50.79
56402;BME280;42299;35.160;26.100;2022-09-13T07:07:19;100628.44;;;28.98;50.04
56402;BME280;42299;35.160;26.100;2022-09-13T07:08:43;100633.56;;;29.02;49.70
56402;BME280;42299;35.160;26.100;2022-09-13T07:10:07;100645.13;;;29.06;49.65
56402;BME280;42299;35.160;26.100;2022-09-13T07:11:33;100639.44;;;29.39;49.56
56402;BME280;42299;35.160;26.100;2022-09-13T07:12:56;100632.69;;;29.58;49.02
56402;BME280;42299;35.160;26.100;2022-09-13T07:14:20;100633.00;;;29.81;48.57
56402;BME280;42299;35.160;26.100;2022-09-13T07:15:42;100639.13;;;29.84;48.20
56402;BME280;42299;35.160;26.100;2022-09-13T07:17:05;100642.38;;;29.77;48.33
56402;BME280;42299;35.160;26.100;2022-09-13T07:18:28;100644.72;;;29.54;48.69
56402;BME280;42299;35.160;26.100;2022-09-13T07:19:49;100651.47;;;29.35;49.09
56402;BME280;42299;35.160;26.100;2022-09-13T07:21:12;100646.59;;;29.25;49.29
56402;BME280;42299;35.160;26.100;2022-09-13T07:22:33;100651.38;;;29.36;49.42
56402;BME280;42299;35.160;26.100;2022-09-13T07:23:56;100652.50;;;29.60;49.23
56402;BME280;42299;35.160;26.100;2022-09-13T07:25:19;100652.53;;;29.87;49.02
56402;BME280;42299;35.160;26.100;2022-09-13T07:26:42;100645.22;;;30.29;48.37
56402;BME280;42299;35.160;26.100;2022-09-13T07:28:05;100644.88;;;30.60;47.82